Bowen, IL (62316)

12:31 PM CST on February 07, 2016 (GMT -0600)
Chem Gro Inc. | | Change Station
CLOSE
Current Station
Personal Weather Station
Location: Bowen, IL
Elevation: 679 ft
Nearby Weather Stations

Elev 679 ft 40.24 °N, 91.06 °W | Updated 8 seconds ago

Partly Cloudy
Partly Cloudy
44.1 °F
Feels Like 35 °F
N
21.9
Wind Variable Wind from NNE
Gusts 22.4 mph

Today
High -- | Low -- °F
--% Chance of Precip.
Yesterday
High -- | Low -- °F
Precip. -- in
Pressure 29.91 in
Visibility 10.0 miles
Clouds Clear
Windchill 35 °F
Dew Point 35 °F
Humidity 71%
Rainfall 0.00 in
Snow Depth Not available.
7:07 AM 5:29 PM
Waning Crescent, 1% visible
METAR KUIN 071754Z AUTO 28014G18KT 10SM CLR 07/M01 A2990 RMK AO2 SLP128 T00671011 10072 20028 52002
Pressure 29.91 in
Visibility 10.0 miles
Clouds Clear
Windchill 35 °F
Dew Point 35 °F
Humidity 71%
Rainfall 0.00 in
Snow Depth Not available.
7:07 AM 5:29 PM
Waning Crescent, 1% visible
METAR KUIN 071754Z AUTO 28014G18KT 10SM CLR 07/M01 A2990 RMK AO2 SLP128 T00671011 10072 20028 52002

10-Day Weather Forecast

Almanac

Astronomy

Feb. 07, 2016 Rise Set
Actual Time
Civil Twilight
Nautical Twilight
Astronomical Twilight
Moon
Length of Visible Light
Length of Day
Tomorrow will be .
, % of the Moon is Illuminated

Today's Extremes

State Highs State Lows

Community

WunderPhotos

Upload Photos

1,891,280 photos uploaded!

WunderBlog® & News

Nearby

Air Quality

  Air Quality AQ Index Pollutant
Not available.

Snow Depth

Station Depth Elevation

Earthquake Activity

City Distance Mag. Time & Date
Minimum magnitude displayed is 2.5.

Coastal Water Temperatures

Place Temperature

Stations

Nearby Weather Stations

Station Location Temp. Windchill Dew Point Humidity Wind Precip. Elev Updated Type
                   

Watches & Warnings

There are currently no watches in effect.